Airfield :
LOGIN :

Register | Disclaimer

   EN    FR    IT 

 










Legend :    VFR   Marginal VFR   IFR   Intensive IFR   Very Intensive IFR
Visi :
Ceiling :
>= 8 km
>= 3000ft
5 to 8 km
1000 to 3000 ft
1500m to 5 km
500 to 1000 ft
800 to 1500m
200 to 500 ft
< 800m
< 200 ft
Symbols :   Thunderstorms  Fog  Heavy snow  Heavy precipitations  Wind > 20 kt
SIGMETs :     Misc.  Thunderstorms  Icing  Turbulence  Mountain Waves  Volcanic Ashes






- Airport Elevation : 13 ft
- IATA code : OST


EBOS - Oostend bruges Int.

CURRENT METAR :
  • 020950Z 28009KT 9999 FEW020 SCT048 09/05 Q1016 NOSIG

EXPIRED METARs :
  • 020920Z 28010KT 9999 FEW018 BKN048 08/04 Q1016 NOSIG
  • 020850Z 29009KT 9999 FEW018 BKN048 08/04 Q1016 NOSIG
  • 020820Z 29010KT 9999 FEW018 BKN048 08/04 Q1016 NOSIG
  • 020750Z 29008KT 9999 FEW018 BKN048 08/04 Q1016 NOSIG
  • 020720Z 21004KT 9999 FEW018 BKN048 05/03 Q1016 NOSIG
  • 020650Z VRB02KT 9999 BKN048 04/02 Q1016 NOSIG

TAF TAF EBOS
Valid from the 02 at 06:00 until the 03 at 12:00 UTC


020510Z 0206/0312 21004KT 9999 FEW020 SCT045
BECMG 0208/0210 27014KT
PROB30
TEMPO 0218/0222 4500 SHRA RA BKN014
BECMG 0222/0224 33012KT



MET'MAP, your aeronautical weather chart ! - Copyright ORBIFLY December 2007 - Disclaimer

ORBIFLY MET'MAP TEAM :

Programming & Development : Alexandra Zaïnal
Concept & original design : Baudouin d'Aumeries
Assistance for programming : Marc-Olivier Méhu
Technical & hardware support : Manuel Goepfert

Contact : metmap@orbifly.com




SOURCES & CREDITS :

   NOAA